Time;durP1;ratioP1;P1;durP2;ratioP2;P2;SDS_P1;SDS_P2;PMS_P1;PMS_P2;Temp;Humidity;BMP_temperature;BMP_pressure;BME280_temperature;BME280_humidity;BME280_pressure;Samples;Min_cycle;Max_cycle;Signal;HPM_P1;HPM_P2
2022/06/26 00:02:18;;;;;;;1.92;1.75;;;;;;;34.25;24.24;97992.03;5079098;28;20039;-77
2022/06/26 00:04:44;;;;;;;1.50;1.20;;;;;;;34.10;24.23;97994.22;5079169;28;20392;-77
2022/06/26 00:07:10;;;;;;;2.00;1.30;;;;;;;34.07;24.33;97992.41;5079449;28;20032;-77
2022/06/26 00:09:36;;;;;;;3.33;1.10;;;;;;;33.97;24.61;97985.28;5079123;28;20021;-77
2022/06/26 00:12:03;;;;;;;2.15;1.30;;;;;;;34.01;24.57;97997.22;5079817;28;20036;-77
2022/06/26 00:14:29;;;;;;;1.80;1.48;;;;;;;33.82;24.50;97991.09;5099128;28;20028;-77
2022/06/26 00:16:55;;;;;;;2.53;1.42;;;;;;;33.74;25.05;97992.06;5096440;28;20028;-77
2022/06/26 00:19:21;;;;;;;3.53;1.50;;;;;;;33.55;25.18;97990.81;5096570;28;20104;-77
2022/06/26 00:21:47;;;;;;;1.80;1.20;;;;;;;33.80;24.34;97990.81;5096210;28;20028;-77
2022/06/26 00:24:14;;;;;;;2.25;1.30;;;;;;;33.98;24.42;97992.56;5095825;28;20032;-77
2022/06/26 00:26:40;;;;;;;4.90;1.30;;;;;;;34.06;24.57;97999.38;5077953;28;20364;-77
2022/06/26 00:29:06;;;;;;;2.13;1.35;;;;;;;34.11;24.16;97992.16;5091704;28;20028;-77
2022/06/26 00:31:32;;;;;;;1.95;1.40;;;;;;;33.90;24.57;98006.47;5088938;28;20020;-77
2022/06/26 00:33:58;;;;;;;2.45;1.33;;;;;;;33.54;24.89;98006.34;5075558;28;20150;-76
2022/06/26 00:36:24;;;;;;;1.55;1.45;;;;;;;33.40;25.00;98008.75;5075550;28;20108;-77
2022/06/26 00:38:52;;;;;;;1.67;1.40;;;;;;;33.40;25.02;98011.59;5075307;28;20036;-77
2022/06/26 00:41:18;;;;;;;2.42;1.40;;;;;;;33.10;25.38;98009.38;5075543;28;20511;-76
2022/06/26 00:43:44;;;;;;;2.67;1.63;;;;;;;32.94;26.30;98009.94;5075342;28;20040;-76
2022/06/26 00:46:11;;;;;;;3.65;1.40;;;;;;;32.69;26.55;98006.50;5076285;28;20029;-76
2022/06/26 00:48:37;;;;;;;1.60;1.40;;;;;;;32.82;25.97;98014.69;5095534;28;20464;-76
2022/06/26 00:51:03;;;;;;;3.65;1.83;;;;;;;33.01;25.54;98009.50;5095912;28;20368;-76
2022/06/26 00:53:30;;;;;;;1.45;1.20;;;;;;;33.24;25.55;98011.38;5095528;28;20107;-76
2022/06/26 00:55:56;;;;;;;1.83;1.50;;;;;;;33.42;24.99;98014.72;5083604;28;20029;-76
2022/06/26 00:58:23;;;;;;;1.60;1.30;;;;;;;33.63;24.96;98011.88;5074797;28;20044;-76
2022/06/26 01:00:49;;;;;;;2.40;1.50;;;;;;;33.71;24.72;98010.94;5075024;28;20029;-76
2022/06/26 01:03:15;;;;;;;1.15;1.05;;;;;;;33.45;25.14;98012.94;5076817;28;20032;-76
2022/06/26 01:05:41;;;;;;;1.60;1.50;;;;;;;33.54;24.83;98012.03;5095186;28;20028;-76
2022/06/26 01:08:08;;;;;;;2.95;1.95;;;;;;;33.72;24.71;98006.81;5094973;28;20536;-76
2022/06/26 01:10:34;;;;;;;2.00;1.60;;;;;;;33.85;24.46;98012.09;5110925;28;20555;-76
2022/06/26 01:13:01;;;;;;;2.25;1.85;;;;;;;33.78;24.65;98009.69;5094898;28;20040;-76
2022/06/26 01:15:28;;;;;;;2.00;1.80;;;;;;;33.85;24.63;98007.19;5095215;28;20062;-76
2022/06/26 01:17:55;;;;;;;3.20;1.60;;;;;;;33.86;24.49;98003.06;5103505;28;20044;-76
2022/06/26 01:20:21;;;;;;;1.42;1.33;;;;;;;33.84;24.34;97999.16;5084869;28;20020;-76
2022/06/26 01:22:57;;;;;;;2.53;1.83;;;;;;;33.95;23.83;98002.09;5074816;28;20457;-77
2022/06/26 01:25:23;;;;;;;2.20;1.70;;;;;;;33.95;24.00;98002.09;5074988;28;20103;-77
2022/06/26 01:27:50;;;;;;;2.65;1.77;;;;;;;33.89;24.42;98004.09;5073773;28;20041;-77
2022/06/26 01:30:16;;;;;;;1.58;1.48;;;;;;;34.02;24.15;98001.66;5074120;28;20511;-77
2022/06/26 01:32:43;;;;;;;4.97;2.42;;;;;;;33.62;24.37;98002.56;5073084;28;20064;-77
2022/06/26 01:35:09;;;;;;;1.60;1.50;;;;;;;33.19;25.33;98006.41;5075163;28;20028;-77
2022/06/26 01:37:35;;;;;;;4.43;1.42;;;;;;;33.32;24.88;98004.00;5089246;28;20063;-76
2022/06/26 01:40:01;;;;;;;4.10;2.00;;;;;;;33.46;24.64;98002.34;5074339;28;20025;-76
2022/06/26 01:42:27;;;;;;;2.60;1.67;;;;;;;33.57;25.16;98003.28;5056610;28;20044;-77
2022/06/26 01:44:53;;;;;;;1.95;1.67;;;;;;;33.56;24.52;98007.38;5074246;28;20035;-77
2022/06/26 01:47:19;;;;;;;2.17;1.92;;;;;;;33.61;24.40;98006.66;5090516;28;20020;-76
2022/06/26 01:49:45;;;;;;;1.85;1.58;;;;;;;33.64;24.41;98002.81;5085474;28;20037;-76
2022/06/26 01:52:11;;;;;;;3.90;1.85;;;;;;;33.69;24.81;98010.66;5074036;28;20037;-76
2022/06/26 01:54:38;;;;;;;2.15;1.95;;;;;;;33.57;24.65;98016.72;5075055;28;20504;-76
2022/06/26 01:57:04;;;;;;;3.42;1.40;;;;;;;33.66;24.47;98017.34;5074032;28;20056;-76
2022/06/26 01:59:30;;;;;;;2.45;1.70;;;;;;;33.67;24.17;98018.91;5073901;28;20070;-76
2022/06/26 02:01:56;;;;;;;3.25;1.67;;;;;;;33.42;24.96;98016.81;5073743;28;20060;-76
2022/06/26 02:04:22;;;;;;;1.83;1.63;;;;;;;33.20;24.82;98023.00;5056006;28;20075;-76
2022/06/26 02:06:48;;;;;;;1.60;1.50;;;;;;;33.08;25.06;98021.28;5073562;28;20082;-76
2022/06/26 02:14:44;;;;;;;2.00;1.70;;;;;;;33.16;24.94;98019.59;5093992;28;20038;-76
2022/06/26 02:17:10;;;;;;;3.65;1.83;;;;;;;33.18;24.80;98021.94;5093948;28;20028;-76
2022/06/26 02:19:36;;;;;;;2.22;1.58;;;;;;;33.30;24.75;98024.41;5093620;28;20032;-76
2022/06/26 02:22:02;;;;;;;2.30;2.10;;;;;;;33.20;25.36;98025.06;5093763;28;20028;-76
2022/06/26 02:24:28;;;;;;;2.45;2.10;;;;;;;33.26;25.23;98023.84;5093898;28;20115;-76
2022/06/26 02:26:54;;;;;;;2.28;1.40;;;;;;;33.08;24.93;98031.88;5093852;28;20042;-76
2022/06/26 02:29:20;;;;;;;1.75;1.65;;;;;;;32.83;24.87;98027.63;5079906;28;20040;-76
2022/06/26 02:31:46;;;;;;;1.90;1.75;;;;;;;32.74;25.31;98024.91;5088578;28;20067;-76
2022/06/26 02:34:12;;;;;;;3.70;1.55;;;;;;;32.95;25.38;98034.25;5093312;28;20536;-76
2022/06/26 02:36:38;;;;;;;3.28;2.10;;;;;;;33.18;24.83;98039.78;5093483;28;20028;-76
2022/06/26 02:39:05;;;;;;;2.45;1.73;;;;;;;32.88;24.99;98041.16;5075026;28;20135;-76
2022/06/26 02:41:31;;;;;;;2.95;1.70;;;;;;;33.05;24.87;98047.88;5093483;28;20032;-76
2022/06/26 02:43:57;;;;;;;2.90;1.98;;;;;;;33.09;24.75;98042.00;5093471;28;20036;-76
2022/06/26 02:46:23;;;;;;;1.77;1.45;;;;;;;32.64;25.30;98049.06;5089583;28;20031;-76
2022/06/26 02:48:49;;;;;;;3.03;2.00;;;;;;;32.71;25.30;98046.59;5093047;28;20081;-76
2022/06/26 02:51:15;;;;;;;1.85;1.75;;;;;;;33.02;24.50;98048.09;5093384;28;20028;-75
2022/06/26 02:53:41;;;;;;;2.35;1.73;;;;;;;33.28;24.66;98054.66;5093414;28;20055;-76
2022/06/26 02:56:07;;;;;;;4.15;1.73;;;;;;;33.31;24.58;98057.28;5075970;28;20045;-76
2022/06/26 02:58:33;;;;;;;3.20;1.88;;;;;;;33.37;24.44;98052.44;5073114;28;20052;-76
2022/06/26 03:00:59;;;;;;;2.30;1.80;;;;;;;33.53;24.07;98053.19;5072995;28;20123;-76
2022/06/26 03:03:25;;;;;;;2.28;1.80;;;;;;;32.99;24.48;98061.22;5084341;28;20028;-76
2022/06/26 03:05:51;;;;;;;1.70;1.60;;;;;;;32.31;25.16;98068.38;5093178;28;20111;-76
2022/06/26 03:08:17;;;;;;;2.03;1.80;;;;;;;32.02;25.60;98061.41;5093416;28;20082;-76
2022/06/26 03:10:43;;;;;;;1.77;1.67;;;;;;;32.34;25.84;98064.56;5093161;28;20028;-76
2022/06/26 03:13:10;;;;;;;1.60;1.50;;;;;;;32.80;25.20;98064.81;5079625;28;20071;-76
2022/06/26 03:15:36;;;;;;;2.20;1.80;;;;;;;32.98;25.06;98068.19;5072998;28;20029;-76
2022/06/26 03:18:02;;;;;;;4.55;2.17;;;;;;;33.02;24.80;98068.81;5072618;28;20040;-76
2022/06/26 03:20:29;;;;;;;2.25;1.60;;;;;;;32.86;25.53;98071.38;5084933;28;20028;-76
2022/06/26 03:22:55;;;;;;;2.45;1.73;;;;;;;32.70;25.71;98076.28;5092976;28;20126;-76
2022/06/26 03:25:21;;;;;;;2.35;1.83;;;;;;;32.94;25.57;98067.59;5093164;28;20039;-76
2022/06/26 03:27:47;;;;;;;2.38;1.60;;;;;;;33.36;24.76;98070.03;5084786;28;20029;-76
2022/06/26 03:30:14;;;;;;;2.70;1.75;;;;;;;33.09;25.19;98074.06;5054912;28;20036;-76
2022/06/26 03:32:40;;;;;;;2.50;1.60;;;;;;;33.12;25.28;98073.06;5072349;28;20105;-76
2022/06/26 03:35:08;;;;;;;2.00;1.90;;;;;;;33.64;24.81;98076.88;5073196;28;20388;-76
2022/06/26 03:37:34;;;;;;;2.47;1.70;;;;;;;34.04;24.75;98073.19;5085216;28;20028;-76
2022/06/26 03:40:00;;;;;;;1.58;1.48;;;;;;;34.17;25.06;98082.13;5092935;28;20060;-76
2022/06/26 03:42:26;;;;;;;3.53;1.70;;;;;;;34.87;25.18;98084.56;5074717;28;20020;-76
2022/06/26 03:44:52;;;;;;;2.00;1.80;;;;;;;35.26;24.13;98086.41;5092807;28;20036;-76
2022/06/26 03:47:18;;;;;;;1.83;1.25;;;;;;;35.63;24.08;98080.63;5092761;28;20476;-76
2022/06/26 03:49:44;;;;;;;3.10;1.98;;;;;;;36.19;23.35;98090.16;5093309;28;20040;-76
2022/06/26 03:52:10;;;;;;;1.90;1.60;;;;;;;36.05;23.65;98094.03;5095211;28;20058;-76
2022/06/26 03:54:37;;;;;;;2.35;2.08;;;;;;;35.96;24.04;98091.38;5087284;28;20035;-76
2022/06/26 03:57:03;;;;;;;3.17;1.75;;;;;;;35.86;23.57;98092.91;5079934;28;20036;-76
2022/06/26 03:59:30;;;;;;;1.88;1.60;;;;;;;35.91;24.11;98080.72;5076777;28;20036;-76
2022/06/26 04:01:56;;;;;;;2.38;1.67;;;;;;;36.33;23.77;98082.63;5076213;28;20420;-76
2022/06/26 04:04:22;;;;;;;1.83;1.58;;;;;;;36.29;23.75;98094.34;5076331;28;20081;-76
2022/06/26 04:06:48;;;;;;;2.15;1.70;;;;;;;36.45;23.71;98087.88;5076085;28;20029;-76
2022/06/26 04:09:14;;;;;;;3.58;1.80;;;;;;;36.36;23.57;98079.50;5076341;28;20024;-76
2022/06/26 04:11:40;;;;;;;2.70;2.00;;;;;;;36.10;23.84;98090.41;5089658;28;20036;-76
2022/06/26 04:14:07;;;;;;;2.40;1.92;;;;;;;36.04;23.83;98081.81;5078103;28;20024;-76
2022/06/26 04:16:33;;;;;;;2.05;1.83;;;;;;;36.17;24.07;98086.25;5095963;28;20031;-76
2022/06/26 04:18:59;;;;;;;1.92;1.75;;;;;;;36.40;23.74;98091.47;5096319;28;20028;-76
2022/06/26 04:21:25;;;;;;;2.53;1.80;;;;;;;36.50;23.28;98089.94;5096078;28;20103;-76
2022/06/26 04:23:51;;;;;;;2.65;1.83;;;;;;;36.71;23.39;98084.75;5096056;28;20043;-75
2022/06/26 04:26:17;;;;;;;2.25;1.90;;;;;;;36.82;22.85;98086.81;5087894;28;20045;-76
2022/06/26 04:28:43;;;;;;;1.95;1.75;;;;;;;36.90;23.27;98087.84;5089894;28;20063;-76
2022/06/26 04:31:09;;;;;;;2.80;1.77;;;;;;;36.83;22.61;98092.00;5077624;28;20487;-76
2022/06/26 04:33:35;;;;;;;1.45;1.35;;;;;;;36.90;21.94;98100.06;5095867;28;20028;-76
2022/06/26 04:36:01;;;;;;;1.38;1.27;;;;;;;36.73;22.30;98090.72;5095911;28;20028;-76
2022/06/26 04:38:28;;;;;;;2.03;1.40;;;;;;;36.61;23.00;98094.91;5095769;28;20365;-76
2022/06/26 04:40:54;;;;;;;1.52;1.42;;;;;;;36.99;22.95;98091.25;5095767;28;20032;-76
2022/06/26 04:43:20;;;;;;;2.45;1.60;;;;;;;36.95;22.53;98087.84;5095626;28;20032;-76
2022/06/26 04:45:46;;;;;;;1.73;1.63;;;;;;;36.75;23.06;98091.00;5062328;28;20447;-76
2022/06/26 04:48:12;;;;;;;2.60;1.52;;;;;;;36.84;22.94;98092.78;5079297;28;20028;-76
2022/06/26 04:50:38;;;;;;;1.60;1.50;;;;;;;37.08;23.39;98093.84;5083513;28;20127;-76
2022/06/26 04:53:04;;;;;;;1.95;1.60;;;;;;;37.27;22.24;98091.19;5075392;28;20048;-76
2022/06/26 04:55:32;;;;;;;2.58;1.30;;;;;;;37.17;23.08;98089.91;5078538;28;20016;-76
2022/06/26 04:57:58;;;;;;;1.33;1.23;;;;;;;37.40;22.63;98091.44;5095436;28;20052;-76
2022/06/26 05:00:24;;;;;;;1.63;1.13;;;;;;;37.86;22.10;98085.78;5095371;28;20036;-76
2022/06/26 05:02:50;;;;;;;1.55;1.45;;;;;;;37.64;22.67;98085.88;5079197;28;20396;-76
2022/06/26 05:05:16;;;;;;;1.75;1.33;;;;;;;37.65;22.95;98093.16;5075031;28;20029;-77
2022/06/26 05:07:42;;;;;;;1.02;0.93;;;;;;;38.07;22.14;98091.91;5075005;28;20040;-76
2022/06/26 05:10:08;;;;;;;1.30;1.20;;;;;;;37.95;22.28;98093.31;5074934;28;20028;-76
2022/06/26 05:12:35;;;;;;;2.15;1.05;;;;;;;37.97;22.45;98094.31;5074817;28;20036;-76
2022/06/26 05:15:01;;;;;;;1.17;1.08;;;;;;;37.66;22.96;98099.66;5074583;28;20028;-76
2022/06/26 05:17:27;;;;;;;1.40;1.10;;;;;;;38.24;23.14;98104.06;5074849;28;20139;-77
2022/06/26 05:19:53;;;;;;;1.08;1.08;;;;;;;38.66;22.27;98106.41;5090301;28;20508;-76
2022/06/26 05:22:19;;;;;;;2.22;1.52;;;;;;;39.12;21.27;98107.56;5094833;28;20027;-76
2022/06/26 05:24:46;;;;;;;2.05;1.08;;;;;;;39.64;21.40;98107.28;5089244;28;20066;-76
2022/06/26 05:27:12;;;;;;;1.25;0.93;;;;;;;39.90;20.58;98111.16;5074525;28;20040;-77
2022/06/26 05:29:38;;;;;;;2.55;1.30;;;;;;;39.77;20.65;98107.41;5082409;28;20030;-76
2022/06/26 05:32:04;;;;;;;1.30;0.90;;;;;;;39.61;21.58;98109.16;5078381;28;20461;-77
2022/06/26 05:34:30;;;;;;;2.03;0.70;;;;;;;40.08;20.79;98109.59;5074598;28;20484;-77
2022/06/26 05:36:58;;;;;;;1.02;1.00;;;;;;;40.33;20.87;98105.31;5077486;28;20086;-77
2022/06/26 05:39:24;;;;;;;3.15;0.70;;;;;;;40.37;21.00;98114.44;5074294;28;20041;-76
2022/06/26 05:41:50;;;;;;;1.02;0.90;;;;;;;39.30;21.86;98121.25;5074312;28;20472;-77
2022/06/26 05:44:17;;;;;;;0.80;0.80;;;;;;;39.17;21.37;98127.66;5073857;28;20119;-77
2022/06/26 05:46:43;;;;;;;1.48;1.15;;;;;;;39.76;21.74;98120.22;5074511;28;20039;-77
2022/06/26 05:49:09;;;;;;;0.90;0.80;;;;;;;40.18;20.67;98119.41;5074350;28;20035;-76
2022/06/26 05:51:35;;;;;;;1.20;0.80;;;;;;;40.42;20.91;98122.19;5074052;28;20024;-77
2022/06/26 05:54:01;;;;;;;1.00;1.00;;;;;;;39.65;21.67;98129.78;5085977;28;20032;-77
2022/06/26 05:56:28;;;;;;;0.95;0.80;;;;;;;39.05;22.19;98136.88;5082642;28;20036;-77
2022/06/26 05:58:54;;;;;;;1.13;1.02;;;;;;;37.70;23.53;98132.47;5073573;28;20041;-77
2022/06/26 06:01:20;;;;;;;1.20;1.10;;;;;;;36.88;24.76;98137.03;5073974;28;20039;-77
2022/06/26 06:03:46;;;;;;;2.42;1.10;;;;;;;37.03;24.46;98143.31;5073967;28;20086;-77
2022/06/26 06:06:12;;;;;;;1.38;1.27;;;;;;;36.44;25.39;98139.84;5073954;28;20033;-77
2022/06/26 06:08:38;;;;;;;0.90;0.90;;;;;;;36.49;25.21;98139.88;5073693;28;20086;-77
2022/06/26 06:11:04;;;;;;;1.15;1.05;;;;;;;36.61;24.91;98146.41;5076791;28;20103;-77
2022/06/26 06:13:30;;;;;;;1.20;1.10;;;;;;;36.05;25.83;98146.28;5072928;28;20021;-77
2022/06/26 06:15:56;;;;;;;1.77;1.67;;;;;;;36.30;25.50;98140.84;5073552;28;20060;-77
2022/06/26 06:18:22;;;;;;;2.80;2.13;;;;;;;35.35;26.58;98149.00;5073646;28;20028;-77
2022/06/26 06:20:50;;;;;;;3.13;2.40;;;;;;;35.33;26.83;98156.53;5073510;28;20027;-77
2022/06/26 06:23:16;;;;;;;1.90;1.73;;;;;;;35.77;26.25;98156.78;5075567;28;20042;-76
2022/06/26 06:25:42;;;;;;;3.80;2.67;;;;;;;35.22;26.56;98154.38;5092653;28;20107;-77
2022/06/26 06:28:08;;;;;;;4.00;2.83;;;;;;;34.58;27.42;98160.59;5074195;28;20028;-77
2022/06/26 06:30:35;;;;;;;2.42;2.22;;;;;;;34.70;27.34;98158.63;5086258;28;20032;-77
2022/06/26 06:33:01;;;;;;;2.95;2.60;;;;;;;34.49;27.41;98162.81;5093990;28;20055;-77
2022/06/26 06:35:27;;;;;;;3.63;2.38;;;;;;;35.77;26.18;98159.66;5094062;28;20036;-77
2022/06/26 06:37:53;;;;;;;4.88;2.72;;;;;;;35.54;26.58;98168.63;5075459;28;20028;-77
2022/06/26 06:40:19;;;;;;;3.85;2.58;;;;;;;36.26;26.51;98161.13;5093450;28;20028;-77
2022/06/26 06:42:45;;;;;;;2.50;2.30;;;;;;;35.24;26.53;98166.06;5092558;28;20028;-77
2022/06/26 06:45:12;;;;;;;2.60;2.40;;;;;;;35.19;26.74;98172.53;5090507;28;20056;-77
2022/06/26 06:47:38;;;;;;;3.03;2.75;;;;;;;34.78;27.54;98173.19;5093371;28;20099;-77
2022/06/26 06:50:05;;;;;;;4.53;3.25;;;;;;;34.33;28.17;98171.97;5092368;28;20077;-77
2022/06/26 06:52:31;;;;;;;3.22;3.03;;;;;;;35.65;27.13;98163.75;5085220;28;20047;-77
2022/06/26 06:54:57;;;;;;;4.07;3.25;;;;;;;37.28;24.33;98164.34;5073015;28;20384;-77
2022/06/26 06:57:23;;;;;;;2.25;2.00;;;;;;;36.02;25.84;98167.31;5072451;28;20044;-77
2022/06/26 06:59:50;;;;;;;2.40;2.20;;;;;;;37.12;24.28;98165.94;5072948;28;20470;-77
2022/06/26 07:02:16;;;;;;;3.08;2.78;;;;;;;36.70;24.37;98169.03;5074443;28;20473;-77
2022/06/26 07:04:42;;;;;;;2.70;2.50;;;;;;;36.27;25.59;98164.78;5072921;28;20047;-77
2022/06/26 07:07:08;;;;;;;3.50;2.55;;;;;;;36.19;25.87;98160.84;5073170;28;20029;-77
2022/06/26 07:09:34;;;;;;;3.10;2.80;;;;;;;35.73;27.75;98169.75;5073147;28;20086;-77
2022/06/26 07:12:00;;;;;;;3.30;2.63;;;;;;;36.17;26.52;98169.97;5072924;28;20496;-77
2022/06/26 07:14:26;;;;;;;3.42;2.33;;;;;;;37.34;24.93;98165.88;5073199;28;20071;-77
2022/06/26 07:16:52;;;;;;;3.53;2.50;;;;;;;37.58;24.45;98158.81;5073424;28;20044;-77
2022/06/26 07:19:18;;;;;;;2.28;2.17;;;;;;;37.62;23.85;98167.94;5090940;28;20024;-77
2022/06/26 07:21:45;;;;;;;4.32;2.20;;;;;;;36.84;24.75;98162.28;5092471;28;20059;-77
2022/06/26 07:24:12;;;;;;;2.97;2.70;;;;;;;36.18;25.14;98174.34;5072782;28;20041;-77
2022/06/26 07:26:39;;;;;;;4.82;3.22;;;;;;;35.23;26.25;98170.22;5091791;28;20396;-77
2022/06/26 07:29:09;;;;;;;3.40;3.08;;;;;;;35.90;26.05;98170.59;5076785;28;20051;-77
2022/06/26 07:31:35;;;;;;;2.78;2.58;;;;;;;36.83;25.11;98168.53;5076876;28;20082;-77
2022/06/26 07:34:15;;;;;;;3.25;2.75;;;;;;;36.41;26.35;98172.34;5077025;28;20064;-77
2022/06/26 07:36:41;;;;;;;3.03;2.72;;;;;;;35.94;25.30;98174.00;5077123;28;20033;-77
2022/06/26 07:39:10;;;;;;;3.28;2.75;;;;;;;36.62;25.14;98165.09;5077139;28;20020;-77
2022/06/26 07:41:36;;;;;;;2.88;2.38;;;;;;;36.38;25.22;98171.31;5076844;28;20446;-77
2022/06/26 07:44:02;;;;;;;2.75;2.50;;;;;;;35.36;26.23;98175.47;5076733;28;20089;-77
2022/06/26 07:46:29;;;;;;;4.05;3.67;;;;;;;34.62;27.59;98169.69;5076502;28;20117;-77
2022/06/26 07:48:55;;;;;;;2.67;2.45;;;;;;;35.84;25.31;98167.72;5058662;28;20464;-77
2022/06/26 07:51:21;;;;;;;3.17;2.47;;;;;;;36.62;24.10;98163.03;5081302;28;20491;-77
2022/06/26 07:53:47;;;;;;;3.63;2.78;;;;;;;36.54;24.42;98166.94;5058545;28;20048;-77
2022/06/26 07:56:14;;;;;;;3.50;2.60;;;;;;;36.79;23.30;98167.97;5076265;28;20028;-77
2022/06/26 07:58:40;;;;;;;4.13;2.78;;;;;;;37.00;23.59;98158.66;5075971;28;20055;-77
2022/06/26 08:01:06;;;;;;;2.50;2.30;;;;;;;37.02;24.56;98170.34;5076546;28;20114;-77
2022/06/26 08:03:32;;;;;;;2.45;2.25;;;;;;;36.53;23.88;98159.63;5076224;28;20082;-77
2022/06/26 08:05:58;;;;;;;4.20;2.42;;;;;;;36.82;24.33;98162.00;5076248;28;20051;-77
2022/06/26 08:08:24;;;;;;;3.80;2.67;;;;;;;36.26;24.24;98166.06;5079423;28;20118;-77
2022/06/26 08:10:50;;;;;;;4.28;2.97;;;;;;;36.02;24.45;98163.66;5096498;28;20036;-77
2022/06/26 08:13:16;;;;;;;3.72;2.20;;;;;;;36.39;22.94;98158.56;5096291;28;20032;-77
2022/06/26 08:15:42;;;;;;;3.58;2.33;;;;;;;35.53;23.38;98169.88;5096460;28;20032;-77
2022/06/26 08:18:09;;;;;;;2.20;1.98;;;;;;;35.71;23.02;98167.38;5096278;28;20075;-78
2022/06/26 08:20:35;;;;;;;2.25;2.05;;;;;;;36.73;22.87;98160.19;5096008;28;20387;-77
2022/06/26 08:23:01;;;;;;;2.65;2.25;;;;;;;38.47;21.12;98162.88;5075774;28;20041;-77
2022/06/26 08:25:27;;;;;;;2.60;2.40;;;;;;;36.29;21.73;98171.56;5079598;28;20059;-78
2022/06/26 08:27:54;;;;;;;2.50;2.30;;;;;;;36.44;21.48;98165.59;5096000;28;20115;-77
2022/06/26 08:30:20;;;;;;;3.25;2.15;;;;;;;36.17;22.35;98172.81;5063849;28;20025;-78
2022/06/26 08:32:46;;;;;;;2.42;1.85;;;;;;;36.71;21.80;98165.63;5095604;28;20028;-77
2022/06/26 08:35:13;;;;;;;2.95;2.28;;;;;;;36.43;22.25;98184.81;5095893;28;20111;-77
2022/06/26 08:37:40;;;;;;;3.80;1.85;;;;;;;37.37;21.40;98167.75;5095248;28;20071;-77
2022/06/26 08:40:07;;;;;;;1.98;1.80;;;;;;;36.50;22.26;98177.88;5096222;28;20020;-78
2022/06/26 08:42:38;;;;;;;1.92;1.83;;;;;;;35.79;21.78;98179.13;5091732;28;20071;-77
2022/06/26 08:45:05;;;;;;;3.90;1.70;;;;;;;36.32;21.13;98166.84;5095837;28;20039;-77
2022/06/26 08:47:35;;;;;;;2.95;2.03;;;;;;;36.10;20.94;98172.53;5095378;28;20071;-77
2022/06/26 08:50:02;;;;;;;1.88;1.70;;;;;;;36.53;20.60;98171.09;5095763;28;20063;-77
2022/06/26 08:52:30;;;;;;;2.70;1.60;;;;;;;36.68;21.01;98163.84;5095907;28;20444;-77
2022/06/26 08:54:57;;;;;;;1.70;1.60;;;;;;;37.40;21.95;98163.06;5095539;28;20032;-77
2022/06/26 08:57:24;;;;;;;3.10;1.73;;;;;;;36.78;21.55;98166.44;5095111;28;20097;-78
2022/06/26 08:59:50;;;;;;;2.33;1.80;;;;;;;36.15;20.57;98166.03;5088151;28;20043;-78
2022/06/26 09:02:16;;;;;;;1.85;1.52;;;;;;;36.46;20.57;98166.66;5074889;28;20025;-78
2022/06/26 09:04:42;;;;;;;1.98;1.77;;;;;;;35.01;22.13;98166.41;5075109;28;20036;-77
2022/06/26 09:07:09;;;;;;;4.10;1.90;;;;;;;35.74;20.86;98174.16;5075121;28;20044;-78
2022/06/26 09:09:39;;;;;;;2.40;1.60;;;;;;;36.37;20.34;98168.94;5075141;28;20033;-77
2022/06/26 09:12:06;;;;;;;2.33;1.60;;;;;;;36.54;20.40;98170.59;5075052;28;20089;-77
2022/06/26 09:14:33;;;;;;;2.47;1.90;;;;;;;36.17;19.85;98169.16;5074918;28;20032;-77
2022/06/26 09:16:59;;;;;;;2.92;1.73;;;;;;;36.61;19.38;98167.22;5082875;28;20442;-77
2022/06/26 09:19:33;;;;;;;2.78;1.73;;;;;;;37.14;18.46;98166.19;5093508;28;20044;-78
2022/06/26 09:22:25;;;;;;;2.58;1.77;;;;;;;37.62;18.36;98168.75;5075028;28;20111;-77
2022/06/26 09:24:54;;;;;;;1.55;1.38;;;;;;;38.16;18.85;98171.91;5088482;28;20041;-77
2022/06/26 09:27:21;;;;;;;1.40;1.30;;;;;;;38.04;19.13;98171.19;5074646;28;20078;-77
2022/06/26 09:29:55;;;;;;;3.83;1.50;;;;;;;37.95;19.92;98173.59;5059458;28;20123;-78
2022/06/26 09:32:22;;;;;;;1.42;1.33;;;;;;;38.08;18.61;98167.25;5074347;28;20101;-78
2022/06/26 09:34:51;;;;;;;2.88;1.60;;;;;;;37.62;19.16;98173.69;5089288;28;20028;-76
2022/06/26 09:37:19;;;;;;;1.45;1.35;;;;;;;36.85;19.20;98174.50;5094995;28;20067;-76
2022/06/26 09:39:45;;;;;;;4.40;1.60;;;;;;;36.69;18.91;98168.25;5095019;28;20390;-76
2022/06/26 09:42:21;;;;;;;1.40;1.30;;;;;;;37.27;18.91;98180.75;5094691;28;20043;-76
2022/06/26 09:44:53;;;;;;;2.72;1.27;;;;;;;36.60;17.50;98182.03;5094522;28;20391;-76
2022/06/26 09:47:28;;;;;;;1.25;1.00;;;;;;;37.90;17.78;98172.28;5110162;28;20115;-76
2022/06/26 09:49:59;;;;;;;3.08;1.23;;;;;;;37.57;18.59;98178.13;5092952;28;20371;-76
2022/06/26 09:52:29;;;;;;;1.77;1.60;;;;;;;36.31;19.88;98171.03;5074600;28;20063;-76
2022/06/26 09:54:57;;;;;;;3.55;1.92;;;;;;;36.04;19.63;98175.34;5056880;28;20373;-76
2022/06/26 09:57:26;;;;;;;1.75;1.42;;;;;;;36.38;19.16;98176.25;5073711;28;20559;-76
2022/06/26 09:59:53;;;;;;;1.80;1.30;;;;;;;37.51;20.30;98168.00;5073805;28;20043;-76
2022/06/26 10:08:04;;;;;;;1.25;1.10;;;;;;;40.09;16.64;98168.72;5081768;28;20079;-76
2022/06/26 10:10:33;;;;;;;2.65;1.00;;;;;;;38.56;17.57;98171.19;5094079;28;20507;-76
2022/06/26 10:13:07;;;;;;;1.52;1.13;;;;;;;38.12;16.75;98176.38;5093811;28;20115;-76
2022/06/26 10:15:55;;;;;;;2.88;1.45;;;;;;;37.63;18.67;98173.16;5094411;28;20051;-76
2022/06/26 10:18:55;;;;;;;1.60;1.50;;;;;;;36.58;18.32;98173.19;5090870;28;20052;-76
2022/06/26 10:21:21;;;;;;;1.85;1.20;;;;;;;36.68;18.29;98169.56;5073556;28;20388;-76
2022/06/26 10:23:47;;;;;;;3.78;1.63;;;;;;;36.58;18.49;98176.81;5073941;28;20040;-76
2022/06/26 10:26:15;;;;;;;1.92;1.60;;;;;;;36.44;17.77;98169.22;5091130;28;20040;-77
2022/06/26 10:29:08;;;;;;;1.50;1.35;;;;;;;36.37;18.34;98163.22;5093472;28;20036;-76
2022/06/26 10:31:53;;;;;;;1.60;1.20;;;;;;;36.70;17.75;98164.09;5071560;28;20037;-76
2022/06/26 10:34:23;;;;;;;3.08;1.70;;;;;;;36.97;17.29;98165.41;5073441;28;20044;-76
2022/06/26 10:37:13;;;;;;;2.78;1.27;;;;;;;38.66;16.48;98163.81;5073418;28;20094;-76
2022/06/26 10:39:42;;;;;;;;;;;;;;;38.67;16.42;98161.72;5074027;28;20039;-76
2022/06/26 10:45:27;;;;;;;1.98;1.00;;;;;;;39.82;15.70;98164.03;5093629;28;20051;-76
2022/06/26 10:47:55;;;;;;;2.00;1.17;;;;;;;39.38;16.25;98157.47;5093685;28;20074;-77
2022/06/26 10:50:32;;;;;;;1.42;1.05;;;;;;;39.90;15.40;98159.25;5087275;28;20119;-76
2022/06/26 10:53:20;;;;;;;1.10;1.10;;;;;;;40.03;15.54;98152.84;5093064;28;20494;-76
2022/06/26 10:55:51;;;;;;;2.08;1.30;;;;;;;38.92;16.25;98156.84;5082700;28;20100;-77
2022/06/26 10:58:27;;;;;;;1.45;0.93;;;;;;;38.61;16.29;98161.75;5069712;28;20123;-76
2022/06/26 11:00:55;;;;;;;2.92;1.25;;;;;;;37.28;17.43;98156.53;5081869;28;20073;-76
2022/06/26 11:03:22;;;;;;;3.20;1.45;;;;;;;37.23;17.46;98163.06;5093508;28;20035;-76
2022/06/26 11:05:57;;;;;;;2.35;1.20;;;;;;;37.30;16.78;98158.88;5093334;28;20136;-76
2022/06/26 11:08:32;;;;;;;2.03;1.60;;;;;;;37.53;16.71;98160.41;5093058;28;20039;-76
2022/06/26 11:11:03;;;;;;;4.70;1.52;;;;;;;39.58;15.18;98144.75;5093012;28;20036;-76
2022/06/26 11:13:30;;;;;;;1.30;1.20;;;;;;;40.61;14.77;98148.13;5093150;28;20036;-76
2022/06/26 11:15:57;;;;;;;1.00;1.00;;;;;;;41.04;14.65;98145.06;5085296;28;20385;-76
2022/06/26 11:18:23;;;;;;;1.10;1.00;;;;;;;39.85;16.08;98148.59;5087722;28;20468;-76
2022/06/26 11:20:52;;;;;;;1.95;1.40;;;;;;;38.17;16.51;98152.63;5092886;28;20032;-77
2022/06/26 11:23:34;;;;;;;2.43;1.30;;;;;;;38.78;16.58;98147.31;5093135;28;20036;-76
2022/06/26 11:26:06;;;;;;;3.22;1.45;;;;;;;38.56;17.57;98141.69;5092795;28;20136;-77
2022/06/26 11:28:40;;;;;;;1.30;1.25;;;;;;;38.05;17.07;98141.22;5072399;28;20040;-76
2022/06/26 11:31:09;;;;;;;3.22;1.30;;;;;;;37.92;18.01;98138.16;5084019;28;20125;-77
2022/06/26 11:33:38;;;;;;;3.67;1.50;;;;;;;39.37;16.84;98146.53;5075942;28;20040;-77
2022/06/26 11:36:09;;;;;;;1.63;1.48;;;;;;;40.11;16.46;98145.16;5072808;28;20053;-77
2022/06/26 11:38:36;;;;;;;1.45;1.30;;;;;;;39.93;15.08;98146.66;5072547;28;20458;-77
2022/06/26 11:41:05;;;;;;;0.95;0.95;;;;;;;39.93;15.76;98138.03;5072500;28;20039;-77
2022/06/26 11:43:32;;;;;;;1.38;1.27;;;;;;;38.56;16.15;98136.72;5072476;28;20040;-77
2022/06/26 11:46:01;;;;;;;1.25;1.15;;;;;;;39.05;16.17;98140.53;5072753;28;20028;-76
2022/06/26 11:48:29;;;;;;;3.85;1.20;;;;;;;39.00;17.01;98144.22;5072917;28;20499;-77
2022/06/26 11:50:57;;;;;;;1.88;1.27;;;;;;;37.99;17.54;98137.59;5088470;28;20028;-77